sensor_id;sensor_type;location;lat;lon;timestamp;P1;durP1;ratioP1;P2;durP2;ratioP2
20657;SDS011;10488;50.846;4.078;2023-07-31T00:00:34;12.90;;;5.18;;
20657;SDS011;10488;50.846;4.078;2023-07-31T00:02:59;23.60;;;5.55;;
20657;SDS011;10488;50.846;4.078;2023-07-31T00:05:25;17.60;;;4.90;;
20657;SDS011;10488;50.846;4.078;2023-07-31T00:07:51;13.63;;;5.10;;
20657;SDS011;10488;50.846;4.078;2023-07-31T00:10:17;18.90;;;5.47;;
20657;SDS011;10488;50.846;4.078;2023-07-31T00:12:43;17.77;;;5.03;;
20657;SDS011;10488;50.846;4.078;2023-07-31T00:15:10;18.23;;;5.57;;
20657;SDS011;10488;50.846;4.078;2023-07-31T00:17:36;15.73;;;4.80;;
20657;SDS011;10488;50.846;4.078;2023-07-31T00:20:02;18.30;;;5.32;;
20657;SDS011;10488;50.846;4.078;2023-07-31T00:22:28;14.38;;;5.03;;
20657;SDS011;10488;50.846;4.078;2023-07-31T00:24:53;16.65;;;5.50;;
20657;SDS011;10488;50.846;4.078;2023-07-31T00:27:19;18.38;;;5.95;;
20657;SDS011;10488;50.846;4.078;2023-07-31T00:29:45;14.02;;;4.90;;
20657;SDS011;10488;50.846;4.078;2023-07-31T00:32:10;13.18;;;5.45;;
20657;SDS011;10488;50.846;4.078;2023-07-31T00:34:36;19.45;;;6.20;;
20657;SDS011;10488;50.846;4.078;2023-07-31T00:37:02;17.15;;;5.43;;
20657;SDS011;10488;50.846;4.078;2023-07-31T00:39:29;14.65;;;5.13;;
20657;SDS011;10488;50.846;4.078;2023-07-31T00:41:55;13.35;;;5.30;;
20657;SDS011;10488;50.846;4.078;2023-07-31T00:44:21;17.70;;;4.85;;
20657;SDS011;10488;50.846;4.078;2023-07-31T00:46:47;15.90;;;5.80;;
20657;SDS011;10488;50.846;4.078;2023-07-31T00:49:13;16.73;;;5.13;;
20657;SDS011;10488;50.846;4.078;2023-07-31T00:51:38;16.55;;;5.07;;
20657;SDS011;10488;50.846;4.078;2023-07-31T00:54:04;20.15;;;5.63;;
20657;SDS011;10488;50.846;4.078;2023-07-31T00:56:31;15.07;;;6.28;;
20657;SDS011;10488;50.846;4.078;2023-07-31T00:58:57;15.15;;;5.47;;
20657;SDS011;10488;50.846;4.078;2023-07-31T01:01:23;15.93;;;5.97;;
20657;SDS011;10488;50.846;4.078;2023-07-31T01:03:49;18.90;;;5.82;;
20657;SDS011;10488;50.846;4.078;2023-07-31T01:06:33;19.48;;;5.65;;
20657;SDS011;10488;50.846;4.078;2023-07-31T01:11:48;19.02;;;5.65;;
20657;SDS011;10488;50.846;4.078;2023-07-31T01:14:18;19.85;;;5.40;;
20657;SDS011;10488;50.846;4.078;2023-07-31T01:16:44;13.50;;;5.88;;
20657;SDS011;10488;50.846;4.078;2023-07-31T01:19:09;17.55;;;4.93;;
20657;SDS011;10488;50.846;4.078;2023-07-31T01:21:47;14.38;;;4.55;;
20657;SDS011;10488;50.846;4.078;2023-07-31T01:24:37;18.15;;;5.00;;
20657;SDS011;10488;50.846;4.078;2023-07-31T01:27:21;17.70;;;5.95;;
20657;SDS011;10488;50.846;4.078;2023-07-31T01:32:29;21.50;;;5.25;;
20657;SDS011;10488;50.846;4.078;2023-07-31T01:34:55;17.23;;;5.43;;
20657;SDS011;10488;50.846;4.078;2023-07-31T01:37:27;15.68;;;6.05;;
20657;SDS011;10488;50.846;4.078;2023-07-31T01:39:55;16.48;;;5.85;;
20657;SDS011;10488;50.846;4.078;2023-07-31T01:42:20;17.27;;;5.35;;
20657;SDS011;10488;50.846;4.078;2023-07-31T01:44:46;16.00;;;5.75;;
20657;SDS011;10488;50.846;4.078;2023-07-31T01:47:11;16.23;;;5.43;;
20657;SDS011;10488;50.846;4.078;2023-07-31T01:49:37;18.95;;;5.70;;
20657;SDS011;10488;50.846;4.078;2023-07-31T01:52:03;13.90;;;4.43;;
20657;SDS011;10488;50.846;4.078;2023-07-31T01:54:28;14.57;;;5.00;;
20657;SDS011;10488;50.846;4.078;2023-07-31T01:56:54;17.50;;;4.68;;
20657;SDS011;10488;50.846;4.078;2023-07-31T01:59:20;18.67;;;5.60;;
20657;SDS011;10488;50.846;4.078;2023-07-31T02:01:45;11.25;;;4.85;;
20657;SDS011;10488;50.846;4.078;2023-07-31T02:04:11;10.77;;;4.53;;
20657;SDS011;10488;50.846;4.078;2023-07-31T02:06:37;18.05;;;5.10;;
20657;SDS011;10488;50.846;4.078;2023-07-31T02:09:03;24.33;;;5.95;;
20657;SDS011;10488;50.846;4.078;2023-07-31T02:11:28;14.73;;;5.20;;
20657;SDS011;10488;50.846;4.078;2023-07-31T02:13:54;13.25;;;5.07;;
20657;SDS011;10488;50.846;4.078;2023-07-31T02:16:19;14.80;;;5.68;;
20657;SDS011;10488;50.846;4.078;2023-07-31T02:18:45;15.98;;;5.68;;
20657;SDS011;10488;50.846;4.078;2023-07-31T02:21:11;13.15;;;5.10;;
20657;SDS011;10488;50.846;4.078;2023-07-31T02:23:36;13.65;;;5.25;;
20657;SDS011;10488;50.846;4.078;2023-07-31T02:26:02;17.48;;;6.20;;
20657;SDS011;10488;50.846;4.078;2023-07-31T02:28:28;13.48;;;5.03;;
20657;SDS011;10488;50.846;4.078;2023-07-31T02:30:54;17.02;;;5.57;;
20657;SDS011;10488;50.846;4.078;2023-07-31T02:33:19;9.43;;;5.10;;
20657;SDS011;10488;50.846;4.078;2023-07-31T02:35:45;16.70;;;5.75;;
20657;SDS011;10488;50.846;4.078;2023-07-31T02:38:11;17.42;;;5.25;;
20657;SDS011;10488;50.846;4.078;2023-07-31T02:40:36;16.38;;;5.55;;
20657;SDS011;10488;50.846;4.078;2023-07-31T02:43:02;15.10;;;5.60;;
20657;SDS011;10488;50.846;4.078;2023-07-31T02:45:27;14.07;;;5.32;;
20657;SDS011;10488;50.846;4.078;2023-07-31T02:47:53;12.13;;;5.53;;
20657;SDS011;10488;50.846;4.078;2023-07-31T02:50:19;14.52;;;5.95;;
20657;SDS011;10488;50.846;4.078;2023-07-31T02:52:44;14.23;;;6.53;;
20657;SDS011;10488;50.846;4.078;2023-07-31T02:55:10;15.40;;;6.38;;
20657;SDS011;10488;50.846;4.078;2023-07-31T02:57:36;12.15;;;5.75;;
20657;SDS011;10488;50.846;4.078;2023-07-31T03:00:01;17.55;;;6.30;;
20657;SDS011;10488;50.846;4.078;2023-07-31T03:02:30;13.15;;;6.22;;
20657;SDS011;10488;50.846;4.078;2023-07-31T03:04:56;15.50;;;6.70;;
20657;SDS011;10488;50.846;4.078;2023-07-31T03:07:22;9.95;;;5.97;;
20657;SDS011;10488;50.846;4.078;2023-07-31T03:09:47;10.15;;;5.88;;
20657;SDS011;10488;50.846;4.078;2023-07-31T03:12:13;10.65;;;6.03;;
20657;SDS011;10488;50.846;4.078;2023-07-31T03:14:39;12.68;;;6.35;;
20657;SDS011;10488;50.846;4.078;2023-07-31T03:17:04;11.80;;;6.32;;
20657;SDS011;10488;50.846;4.078;2023-07-31T03:19:31;12.63;;;5.20;;
20657;SDS011;10488;50.846;4.078;2023-07-31T03:21:57;14.05;;;6.68;;
20657;SDS011;10488;50.846;4.078;2023-07-31T03:24:23;14.50;;;6.78;;
20657;SDS011;10488;50.846;4.078;2023-07-31T03:26:48;12.73;;;6.75;;
20657;SDS011;10488;50.846;4.078;2023-07-31T03:29:14;12.85;;;5.97;;
20657;SDS011;10488;50.846;4.078;2023-07-31T03:31:40;17.67;;;5.82;;
20657;SDS011;10488;50.846;4.078;2023-07-31T03:34:05;7.88;;;5.43;;
20657;SDS011;10488;50.846;4.078;2023-07-31T03:36:31;11.80;;;5.93;;
20657;SDS011;10488;50.846;4.078;2023-07-31T03:38:57;10.50;;;5.35;;
20657;SDS011;10488;50.846;4.078;2023-07-31T03:41:22;12.48;;;6.05;;
20657;SDS011;10488;50.846;4.078;2023-07-31T03:43:49;11.93;;;6.03;;
20657;SDS011;10488;50.846;4.078;2023-07-31T03:46:20;11.95;;;6.00;;
20657;SDS011;10488;50.846;4.078;2023-07-31T03:48:47;13.82;;;5.72;;
20657;SDS011;10488;50.846;4.078;2023-07-31T03:51:13;12.73;;;5.65;;
20657;SDS011;10488;50.846;4.078;2023-07-31T03:53:39;7.32;;;5.05;;
20657;SDS011;10488;50.846;4.078;2023-07-31T03:56:04;9.73;;;5.03;;
20657;SDS011;10488;50.846;4.078;2023-07-31T03:58:30;9.40;;;4.53;;
20657;SDS011;10488;50.846;4.078;2023-07-31T04:00:56;7.88;;;5.05;;
20657;SDS011;10488;50.846;4.078;2023-07-31T04:03:21;10.38;;;5.63;;
20657;SDS011;10488;50.846;4.078;2023-07-31T04:05:47;10.43;;;5.05;;
20657;SDS011;10488;50.846;4.078;2023-07-31T04:08:12;11.30;;;5.15;;
20657;SDS011;10488;50.846;4.078;2023-07-31T04:10:38;7.93;;;4.82;;
20657;SDS011;10488;50.846;4.078;2023-07-31T04:13:04;11.48;;;5.13;;
20657;SDS011;10488;50.846;4.078;2023-07-31T04:15:29;9.25;;;4.88;;
20657;SDS011;10488;50.846;4.078;2023-07-31T04:17:55;9.82;;;5.60;;
20657;SDS011;10488;50.846;4.078;2023-07-31T04:20:21;12.48;;;5.07;;
20657;SDS011;10488;50.846;4.078;2023-07-31T04:22:46;9.77;;;5.38;;
20657;SDS011;10488;50.846;4.078;2023-07-31T04:25:12;12.55;;;5.05;;
20657;SDS011;10488;50.846;4.078;2023-07-31T04:27:38;10.15;;;5.28;;
20657;SDS011;10488;50.846;4.078;2023-07-31T04:30:05;9.25;;;4.82;;
20657;SDS011;10488;50.846;4.078;2023-07-31T04:32:31;11.05;;;4.88;;
20657;SDS011;10488;50.846;4.078;2023-07-31T04:34:57;10.57;;;4.65;;
20657;SDS011;10488;50.846;4.078;2023-07-31T04:37:22;10.13;;;4.97;;
20657;SDS011;10488;50.846;4.078;2023-07-31T04:39:48;9.40;;;5.28;;
20657;SDS011;10488;50.846;4.078;2023-07-31T04:42:14;9.60;;;5.13;;
20657;SDS011;10488;50.846;4.078;2023-07-31T04:44:39;14.05;;;5.30;;
20657;SDS011;10488;50.846;4.078;2023-07-31T04:47:05;12.73;;;5.40;;
20657;SDS011;10488;50.846;4.078;2023-07-31T04:49:31;11.55;;;4.53;;
20657;SDS011;10488;50.846;4.078;2023-07-31T04:51:57;8.27;;;4.82;;
20657;SDS011;10488;50.846;4.078;2023-07-31T04:54:23;11.98;;;4.80;;
20657;SDS011;10488;50.846;4.078;2023-07-31T04:56:49;12.57;;;5.03;;
20657;SDS011;10488;50.846;4.078;2023-07-31T04:59:14;12.85;;;5.10;;
20657;SDS011;10488;50.846;4.078;2023-07-31T05:01:40;11.13;;;4.43;;
20657;SDS011;10488;50.846;4.078;2023-07-31T05:04:05;12.38;;;4.90;;
20657;SDS011;10488;50.846;4.078;2023-07-31T05:06:31;13.02;;;4.25;;
20657;SDS011;10488;50.846;4.078;2023-07-31T05:08:57;8.45;;;3.97;;
20657;SDS011;10488;50.846;4.078;2023-07-31T05:11:23;10.05;;;4.78;;
20657;SDS011;10488;50.846;4.078;2023-07-31T05:13:49;10.98;;;4.07;;
20657;SDS011;10488;50.846;4.078;2023-07-31T05:16:14;9.10;;;4.18;;
20657;SDS011;10488;50.846;4.078;2023-07-31T05:18:40;10.13;;;4.68;;
20657;SDS011;10488;50.846;4.078;2023-07-31T05:21:05;7.32;;;3.95;;
20657;SDS011;10488;50.846;4.078;2023-07-31T05:23:31;10.90;;;4.82;;
20657;SDS011;10488;50.846;4.078;2023-07-31T05:26:07;9.23;;;4.28;;
20657;SDS011;10488;50.846;4.078;2023-07-31T05:28:35;10.90;;;4.68;;
20657;SDS011;10488;50.846;4.078;2023-07-31T05:31:02;8.23;;;4.40;;
20657;SDS011;10488;50.846;4.078;2023-07-31T05:33:28;8.55;;;4.35;;
20657;SDS011;10488;50.846;4.078;2023-07-31T05:35:54;10.80;;;4.07;;
20657;SDS011;10488;50.846;4.078;2023-07-31T05:38:20;8.20;;;4.13;;
20657;SDS011;10488;50.846;4.078;2023-07-31T05:40:46;9.90;;;4.13;;
20657;SDS011;10488;50.846;4.078;2023-07-31T05:43:12;10.52;;;4.07;;
20657;SDS011;10488;50.846;4.078;2023-07-31T05:45:38;10.88;;;4.65;;
20657;SDS011;10488;50.846;4.078;2023-07-31T05:48:05;10.52;;;4.32;;
20657;SDS011;10488;50.846;4.078;2023-07-31T05:50:31;11.15;;;4.10;;
20657;SDS011;10488;50.846;4.078;2023-07-31T05:52:57;10.57;;;4.18;;
20657;SDS011;10488;50.846;4.078;2023-07-31T05:55:23;10.32;;;4.20;;
20657;SDS011;10488;50.846;4.078;2023-07-31T05:57:51;11.43;;;3.78;;
20657;SDS011;10488;50.846;4.078;2023-07-31T06:00:17;11.43;;;4.75;;
20657;SDS011;10488;50.846;4.078;2023-07-31T06:02:43;10.32;;;4.00;;
20657;SDS011;10488;50.846;4.078;2023-07-31T06:05:09;9.95;;;3.70;;
20657;SDS011;10488;50.846;4.078;2023-07-31T06:07:35;7.30;;;4.10;;
20657;SDS011;10488;50.846;4.078;2023-07-31T06:10:01;11.95;;;4.22;;
20657;SDS011;10488;50.846;4.078;2023-07-31T06:12:32;6.78;;;3.85;;
20657;SDS011;10488;50.846;4.078;2023-07-31T06:14:59;9.18;;;3.92;;
20657;SDS011;10488;50.846;4.078;2023-07-31T06:17:24;6.90;;;4.10;;
20657;SDS011;10488;50.846;4.078;2023-07-31T06:19:51;9.18;;;3.78;;
20657;SDS011;10488;50.846;4.078;2023-07-31T06:22:17;7.55;;;3.72;;
20657;SDS011;10488;50.846;4.078;2023-07-31T06:24:43;9.00;;;3.88;;
20657;SDS011;10488;50.846;4.078;2023-07-31T06:27:09;13.45;;;4.38;;
20657;SDS011;10488;50.846;4.078;2023-07-31T06:29:36;8.65;;;4.07;;
20657;SDS011;10488;50.846;4.078;2023-07-31T06:32:01;8.98;;;4.20;;
20657;SDS011;10488;50.846;4.078;2023-07-31T06:34:28;5.97;;;3.42;;
20657;SDS011;10488;50.846;4.078;2023-07-31T06:36:54;7.95;;;3.72;;
20657;SDS011;10488;50.846;4.078;2023-07-31T06:39:23;8.25;;;3.65;;
20657;SDS011;10488;50.846;4.078;2023-07-31T06:41:49;7.15;;;3.72;;
20657;SDS011;10488;50.846;4.078;2023-07-31T06:44:14;6.32;;;3.67;;
20657;SDS011;10488;50.846;4.078;2023-07-31T06:46:40;11.65;;;4.25;;
20657;SDS011;10488;50.846;4.078;2023-07-31T06:49:05;9.75;;;3.58;;
20657;SDS011;10488;50.846;4.078;2023-07-31T06:51:31;10.00;;;3.50;;
20657;SDS011;10488;50.846;4.078;2023-07-31T06:53:57;7.68;;;2.72;;
20657;SDS011;10488;50.846;4.078;2023-07-31T06:56:23;9.90;;;3.80;;
20657;SDS011;10488;50.846;4.078;2023-07-31T06:58:49;11.98;;;3.83;;
20657;SDS011;10488;50.846;4.078;2023-07-31T07:01:14;8.90;;;4.00;;
20657;SDS011;10488;50.846;4.078;2023-07-31T07:03:40;8.07;;;3.50;;
20657;SDS011;10488;50.846;4.078;2023-07-31T07:06:06;8.10;;;3.47;;
20657;SDS011;10488;50.846;4.078;2023-07-31T07:08:32;6.28;;;3.10;;
20657;SDS011;10488;50.846;4.078;2023-07-31T07:10:57;9.88;;;3.60;;
20657;SDS011;10488;50.846;4.078;2023-07-31T07:13:23;12.63;;;3.33;;
20657;SDS011;10488;50.846;4.078;2023-07-31T07:15:49;8.80;;;3.35;;
20657;SDS011;10488;50.846;4.078;2023-07-31T07:18:15;9.55;;;3.58;;
20657;SDS011;10488;50.846;4.078;2023-07-31T07:20:50;5.95;;;3.45;;
20657;SDS011;10488;50.846;4.078;2023-07-31T07:23:17;10.23;;;3.17;;
20657;SDS011;10488;50.846;4.078;2023-07-31T07:25:44;6.45;;;3.15;;
20657;SDS011;10488;50.846;4.078;2023-07-31T07:28:11;6.75;;;3.15;;
20657;SDS011;10488;50.846;4.078;2023-07-31T07:30:37;13.13;;;4.25;;
20657;SDS011;10488;50.846;4.078;2023-07-31T07:33:02;9.57;;;3.55;;
20657;SDS011;10488;50.846;4.078;2023-07-31T07:35:28;8.38;;;3.95;;
20657;SDS011;10488;50.846;4.078;2023-07-31T07:37:54;7.15;;;3.42;;
20657;SDS011;10488;50.846;4.078;2023-07-31T07:40:20;8.85;;;3.20;;
20657;SDS011;10488;50.846;4.078;2023-07-31T07:42:46;8.82;;;3.05;;
20657;SDS011;10488;50.846;4.078;2023-07-31T07:45:12;5.78;;;3.00;;
20657;SDS011;10488;50.846;4.078;2023-07-31T07:47:38;11.75;;;3.55;;
20657;SDS011;10488;50.846;4.078;2023-07-31T07:50:07;6.90;;;3.17;;
20657;SDS011;10488;50.846;4.078;2023-07-31T07:52:33;10.73;;;3.17;;
20657;SDS011;10488;50.846;4.078;2023-07-31T07:54:59;5.53;;;3.20;;
20657;SDS011;10488;50.846;4.078;2023-07-31T07:57:25;7.10;;;3.25;;
20657;SDS011;10488;50.846;4.078;2023-07-31T07:59:51;11.20;;;3.05;;
20657;SDS011;10488;50.846;4.078;2023-07-31T08:02:17;4.85;;;3.03;;
20657;SDS011;10488;50.846;4.078;2023-07-31T08:04:43;7.32;;;3.22;;
20657;SDS011;10488;50.846;4.078;2023-07-31T08:07:10;9.75;;;3.30;;
20657;SDS011;10488;50.846;4.078;2023-07-31T08:09:37;6.05;;;2.92;;
20657;SDS011;10488;50.846;4.078;2023-07-31T08:12:03;6.55;;;2.95;;
20657;SDS011;10488;50.846;4.078;2023-07-31T08:14:29;9.23;;;3.05;;
20657;SDS011;10488;50.846;4.078;2023-07-31T08:16:55;8.07;;;2.90;;
20657;SDS011;10488;50.846;4.078;2023-07-31T08:19:21;12.35;;;3.53;;
20657;SDS011;10488;50.846;4.078;2023-07-31T08:21:46;9.25;;;3.35;;
20657;SDS011;10488;50.846;4.078;2023-07-31T08:24:12;8.63;;;3.10;;
20657;SDS011;10488;50.846;4.078;2023-07-31T08:26:38;11.15;;;3.47;;
20657;SDS011;10488;50.846;4.078;2023-07-31T08:29:04;7.63;;;3.22;;
20657;SDS011;10488;50.846;4.078;2023-07-31T08:31:29;7.65;;;3.00;;
20657;SDS011;10488;50.846;4.078;2023-07-31T08:33:55;8.95;;;2.88;;
20657;SDS011;10488;50.846;4.078;2023-07-31T08:36:21;8.27;;;3.10;;
20657;SDS011;10488;50.846;4.078;2023-07-31T08:38:47;7.43;;;3.40;;
20657;SDS011;10488;50.846;4.078;2023-07-31T08:41:13;9.52;;;4.35;;
20657;SDS011;10488;50.846;4.078;2023-07-31T08:43:38;7.32;;;3.42;;
20657;SDS011;10488;50.846;4.078;2023-07-31T08:46:05;6.95;;;3.08;;
20657;SDS011;10488;50.846;4.078;2023-07-31T08:48:31;6.07;;;3.40;;
20657;SDS011;10488;50.846;4.078;2023-07-31T08:50:58;6.00;;;3.22;;
20657;SDS011;10488;50.846;4.078;2023-07-31T08:53:24;6.72;;;3.10;;
20657;SDS011;10488;50.846;4.078;2023-07-31T08:55:50;8.45;;;3.38;;
20657;SDS011;10488;50.846;4.078;2023-07-31T08:58:18;8.20;;;3.47;;
20657;SDS011;10488;50.846;4.078;2023-07-31T09:00:45;6.57;;;3.13;;
20657;SDS011;10488;50.846;4.078;2023-07-31T09:03:16;6.15;;;3.17;;
20657;SDS011;10488;50.846;4.078;2023-07-31T09:05:43;8.55;;;3.55;;
20657;SDS011;10488;50.846;4.078;2023-07-31T09:08:11;13.65;;;3.65;;
20657;SDS011;10488;50.846;4.078;2023-07-31T09:10:44;8.15;;;3.60;;
20657;SDS011;10488;50.846;4.078;2023-07-31T09:13:11;11.70;;;4.13;;
20657;SDS011;10488;50.846;4.078;2023-07-31T09:15:38;9.50;;;3.80;;
20657;SDS011;10488;50.846;4.078;2023-07-31T09:18:07;6.78;;;3.03;;
20657;SDS011;10488;50.846;4.078;2023-07-31T09:20:33;8.35;;;4.03;;
20657;SDS011;10488;50.846;4.078;2023-07-31T09:25:35;10.02;;;3.60;;
20657;SDS011;10488;50.846;4.078;2023-07-31T09:28:03;6.60;;;3.75;;
20657;SDS011;10488;50.846;4.078;2023-07-31T09:30:30;7.78;;;4.25;;
20657;SDS011;10488;50.846;4.078;2023-07-31T09:33:09;6.18;;;3.55;;
20657;SDS011;10488;50.846;4.078;2023-07-31T09:35:35;8.35;;;3.88;;
20657;SDS011;10488;50.846;4.078;2023-07-31T09:38:03;7.68;;;3.95;;
20657;SDS011;10488;50.846;4.078;2023-07-31T09:40:35;10.10;;;4.35;;
20657;SDS011;10488;50.846;4.078;2023-07-31T09:43:02;7.57;;;4.18;;
20657;SDS011;10488;50.846;4.078;2023-07-31T09:45:29;11.77;;;4.70;;
20657;SDS011;10488;50.846;4.078;2023-07-31T09:47:59;6.78;;;4.15;;
20657;SDS011;10488;50.846;4.078;2023-07-31T09:50:25;8.32;;;4.80;;
20657;SDS011;10488;50.846;4.078;2023-07-31T09:52:51;12.20;;;5.45;;
20657;SDS011;10488;50.846;4.078;2023-07-31T09:55:17;10.00;;;4.60;;
20657;SDS011;10488;50.846;4.078;2023-07-31T09:57:45;12.70;;;5.20;;
20657;SDS011;10488;50.846;4.078;2023-07-31T10:00:13;7.18;;;4.13;;
20657;SDS011;10488;50.846;4.078;2023-07-31T10:02:40;8.25;;;4.50;;
20657;SDS011;10488;50.846;4.078;2023-07-31T10:05:07;7.53;;;4.57;;
20657;SDS011;10488;50.846;4.078;2023-07-31T10:07:37;14.55;;;5.38;;
20657;SDS011;10488;50.846;4.078;2023-07-31T10:10:04;11.65;;;4.47;;
20657;SDS011;10488;50.846;4.078;2023-07-31T10:12:32;12.57;;;5.20;;
20657;SDS011;10488;50.846;4.078;2023-07-31T10:14:59;12.52;;;5.15;;
20657;SDS011;10488;50.846;4.078;2023-07-31T10:17:26;9.75;;;5.25;;
20657;SDS011;10488;50.846;4.078;2023-07-31T10:19:53;12.55;;;5.18;;
20657;SDS011;10488;50.846;4.078;2023-07-31T10:22:19;7.75;;;4.15;;
20657;SDS011;10488;50.846;4.078;2023-07-31T10:24:46;10.65;;;5.07;;
20657;SDS011;10488;50.846;4.078;2023-07-31T10:27:13;12.70;;;5.15;;
20657;SDS011;10488;50.846;4.078;2023-07-31T10:29:39;7.72;;;4.32;;
20657;SDS011;10488;50.846;4.078;2023-07-31T10:32:07;9.05;;;4.82;;
20657;SDS011;10488;50.846;4.078;2023-07-31T10:34:35;9.65;;;4.53;;
20657;SDS011;10488;50.846;4.078;2023-07-31T10:40:02;11.43;;;4.57;;
20657;SDS011;10488;50.846;4.078;2023-07-31T10:42:37;11.52;;;4.63;;
20657;SDS011;10488;50.846;4.078;2023-07-31T10:45:10;11.43;;;4.15;;
20657;SDS011;10488;50.846;4.078;2023-07-31T10:52:52;10.80;;;4.50;;
20657;SDS011;10488;50.846;4.078;2023-07-31T10:58:11;13.40;;;5.00;;
20657;SDS011;10488;50.846;4.078;2023-07-31T11:00:38;8.63;;;4.72;;
20657;SDS011;10488;50.846;4.078;2023-07-31T11:03:08;10.48;;;4.40;;
20657;SDS011;10488;50.846;4.078;2023-07-31T11:10:44;12.68;;;5.05;;
20657;SDS011;10488;50.846;4.078;2023-07-31T11:13:11;10.32;;;4.53;;
20657;SDS011;10488;50.846;4.078;2023-07-31T11:15:37;10.43;;;4.97;;
20657;SDS011;10488;50.846;4.078;2023-07-31T11:18:03;9.45;;;4.38;;
20657;SDS011;10488;50.846;4.078;2023-07-31T11:20:30;11.57;;;4.90;;
20657;SDS011;10488;50.846;4.078;2023-07-31T11:23:01;12.38;;;4.68;;
20657;SDS011;10488;50.846;4.078;2023-07-31T11:25:31;14.38;;;4.70;;
20657;SDS011;10488;50.846;4.078;2023-07-31T11:28:08;10.10;;;4.15;;
20657;SDS011;10488;50.846;4.078;2023-07-31T11:30:38;12.88;;;4.70;;
20657;SDS011;10488;50.846;4.078;2023-07-31T11:33:06;8.88;;;5.15;;
20657;SDS011;10488;50.846;4.078;2023-07-31T11:35:33;9.18;;;4.10;;
20657;SDS011;10488;50.846;4.078;2023-07-31T11:38:02;10.57;;;3.92;;
20657;SDS011;10488;50.846;4.078;2023-07-31T11:40:28;11.82;;;4.60;;
20657;SDS011;10488;50.846;4.078;2023-07-31T11:42:57;11.68;;;4.53;;
20657;SDS011;10488;50.846;4.078;2023-07-31T11:45:27;12.27;;;4.70;;
20657;SDS011;10488;50.846;4.078;2023-07-31T11:47:56;9.25;;;4.88;;
20657;SDS011;10488;50.846;4.078;2023-07-31T11:50:22;10.10;;;4.18;;
20657;SDS011;10488;50.846;4.078;2023-07-31T11:52:57;9.82;;;4.15;;
20657;SDS011;10488;50.846;4.078;2023-07-31T11:55:25;10.32;;;4.68;;
20657;SDS011;10488;50.846;4.078;2023-07-31T11:57:52;9.18;;;4.05;;
20657;SDS011;10488;50.846;4.078;2023-07-31T12:00:19;11.02;;;4.07;;
20657;SDS011;10488;50.846;4.078;2023-07-31T12:02:45;9.57;;;4.40;;
20657;SDS011;10488;50.846;4.078;2023-07-31T12:05:11;8.32;;;4.03;;
20657;SDS011;10488;50.846;4.078;2023-07-31T12:10:22;7.55;;;3.75;;
20657;SDS011;10488;50.846;4.078;2023-07-31T12:12:56;13.25;;;4.82;;
20657;SDS011;10488;50.846;4.078;2023-07-31T12:17:57;12.13;;;4.25;;
20657;SDS011;10488;50.846;4.078;2023-07-31T12:20:22;8.88;;;4.75;;
20657;SDS011;10488;50.846;4.078;2023-07-31T12:22:48;7.93;;;4.15;;
20657;SDS011;10488;50.846;4.078;2023-07-31T12:25:17;8.32;;;4.22;;
20657;SDS011;10488;50.846;4.078;2023-07-31T12:27:45;9.07;;;4.20;;
20657;SDS011;10488;50.846;4.078;2023-07-31T12:30:27;14.30;;;4.30;;
20657;SDS011;10488;50.846;4.078;2023-07-31T12:33:18;12.65;;;4.88;;
20657;SDS011;10488;50.846;4.078;2023-07-31T12:35:45;10.25;;;4.38;;
20657;SDS011;10488;50.846;4.078;2023-07-31T12:38:14;16.77;;;5.47;;
20657;SDS011;10488;50.846;4.078;2023-07-31T12:40:40;13.13;;;4.63;;
20657;SDS011;10488;50.846;4.078;2023-07-31T12:43:07;9.73;;;4.28;;
20657;SDS011;10488;50.846;4.078;2023-07-31T12:45:34;7.22;;;3.95;;
20657;SDS011;10488;50.846;4.078;2023-07-31T12:48:00;11.45;;;4.72;;
20657;SDS011;10488;50.846;4.078;2023-07-31T12:50:26;10.75;;;4.55;;
20657;SDS011;10488;50.846;4.078;2023-07-31T12:52:53;9.57;;;4.63;;
20657;SDS011;10488;50.846;4.078;2023-07-31T12:55:19;8.75;;;3.72;;
20657;SDS011;10488;50.846;4.078;2023-07-31T12:57:45;7.55;;;4.57;;
20657;SDS011;10488;50.846;4.078;2023-07-31T13:00:11;4.72;;;3.42;;
20657;SDS011;10488;50.846;4.078;2023-07-31T13:02:38;6.78;;;2.97;;
20657;SDS011;10488;50.846;4.078;2023-07-31T13:05:03;6.20;;;3.55;;
20657;SDS011;10488;50.846;4.078;2023-07-31T13:07:30;6.22;;;3.60;;
20657;SDS011;10488;50.846;4.078;2023-07-31T13:09:55;9.07;;;4.10;;
20657;SDS011;10488;50.846;4.078;2023-07-31T13:12:21;7.63;;;4.18;;
20657;SDS011;10488;50.846;4.078;2023-07-31T13:14:47;5.90;;;4.38;;
20657;SDS011;10488;50.846;4.078;2023-07-31T13:17:12;14.20;;;3.75;;
20657;SDS011;10488;50.846;4.078;2023-07-31T13:19:38;6.82;;;3.83;;
20657;SDS011;10488;50.846;4.078;2023-07-31T13:22:04;8.65;;;3.70;;
20657;SDS011;10488;50.846;4.078;2023-07-31T13:24:29;7.10;;;3.35;;
20657;SDS011;10488;50.846;4.078;2023-07-31T13:26:56;6.45;;;3.10;;
20657;SDS011;10488;50.846;4.078;2023-07-31T13:29:22;5.30;;;3.17;;
20657;SDS011;10488;50.846;4.078;2023-07-31T13:31:48;6.63;;;3.00;;
20657;SDS011;10488;50.846;4.078;2023-07-31T13:34:14;7.07;;;3.38;;
20657;SDS011;10488;50.846;4.078;2023-07-31T13:36:40;6.13;;;3.05;;
20657;SDS011;10488;50.846;4.078;2023-07-31T13:39:06;9.40;;;3.70;;
20657;SDS011;10488;50.846;4.078;2023-07-31T13:41:32;6.60;;;3.70;;
20657;SDS011;10488;50.846;4.078;2023-07-31T13:43:58;10.63;;;3.42;;
20657;SDS011;10488;50.846;4.078;2023-07-31T13:46:23;8.98;;;4.00;;
20657;SDS011;10488;50.846;4.078;2023-07-31T13:48:50;10.50;;;3.63;;
20657;SDS011;10488;50.846;4.078;2023-07-31T13:51:19;10.35;;;3.70;;
20657;SDS011;10488;50.846;4.078;2023-07-31T13:53:45;8.95;;;3.78;;
20657;SDS011;10488;50.846;4.078;2023-07-31T13:56:11;6.22;;;3.45;;
20657;SDS011;10488;50.846;4.078;2023-07-31T13:58:36;7.22;;;3.60;;
20657;SDS011;10488;50.846;4.078;2023-07-31T14:01:02;9.95;;;3.75;;
20657;SDS011;10488;50.846;4.078;2023-07-31T14:03:28;5.70;;;3.72;;
20657;SDS011;10488;50.846;4.078;2023-07-31T14:05:54;5.70;;;3.50;;
20657;SDS011;10488;50.846;4.078;2023-07-31T14:08:20;13.75;;;4.70;;
20657;SDS011;10488;50.846;4.078;2023-07-31T14:10:46;7.07;;;4.07;;
20657;SDS011;10488;50.846;4.078;2023-07-31T14:13:12;9.23;;;3.45;;
20657;SDS011;10488;50.846;4.078;2023-07-31T14:15:39;6.78;;;3.60;;
20657;SDS011;10488;50.846;4.078;2023-07-31T14:18:06;9.35;;;3.60;;
20657;SDS011;10488;50.846;4.078;2023-07-31T14:20:32;8.68;;;3.53;;
20657;SDS011;10488;50.846;4.078;2023-07-31T14:22:58;8.60;;;3.78;;
20657;SDS011;10488;50.846;4.078;2023-07-31T14:25:24;5.93;;;3.42;;
20657;SDS011;10488;50.846;4.078;2023-07-31T14:27:50;6.65;;;3.28;;
20657;SDS011;10488;50.846;4.078;2023-07-31T14:30:15;6.50;;;3.35;;
20657;SDS011;10488;50.846;4.078;2023-07-31T14:32:42;7.38;;;3.00;;
20657;SDS011;10488;50.846;4.078;2023-07-31T14:35:07;5.28;;;2.72;;
20657;SDS011;10488;50.846;4.078;2023-07-31T14:37:43;5.63;;;2.85;;
20657;SDS011;10488;50.846;4.078;2023-07-31T14:40:10;6.93;;;2.85;;
20657;SDS011;10488;50.846;4.078;2023-07-31T14:42:37;5.43;;;2.33;;
20657;SDS011;10488;50.846;4.078;2023-07-31T14:45:04;5.13;;;2.38;;
20657;SDS011;10488;50.846;4.078;2023-07-31T14:47:30;3.00;;;2.22;;
20657;SDS011;10488;50.846;4.078;2023-07-31T14:49:57;4.20;;;1.83;;
20657;SDS011;10488;50.846;4.078;2023-07-31T14:52:23;3.00;;;2.05;;
20657;SDS011;10488;50.846;4.078;2023-07-31T14:54:49;2.03;;;1.77;;
20657;SDS011;10488;50.846;4.078;2023-07-31T14:57:15;4.30;;;1.92;;
20657;SDS011;10488;50.846;4.078;2023-07-31T14:59:41;3.38;;;1.55;;
20657;SDS011;10488;50.846;4.078;2023-07-31T15:02:10;3.10;;;1.50;;
20657;SDS011;10488;50.846;4.078;2023-07-31T15:04:36;3.13;;;1.50;;
20657;SDS011;10488;50.846;4.078;2023-07-31T15:07:01;2.05;;;1.33;;